Time;durP1;ratioP1;P1;durP2;ratioP2;P2;SDS_P1;SDS_P2;PMS_P1;PMS_P2;Temp;Humidity;BMP_temperature;BMP_pressure;BME280_temperature;BME280_humidity;BME280_pressure;Samples;Min_cycle;Max_cycle;Signal;HPM_P1;HPM_P2
2023/07/17 00:00:39;;;;;;;6.65;3.28;;;;;;;18.92;100.00;100559.75;7703679;23;20355;-95
2023/07/17 00:03:48;;;;;;;5.93;3.33;;;;;;;18.92;100.00;100561.56;7678788;23;20478;-95
2023/07/17 00:06:53;;;;;;;5.57;2.90;;;;;;;18.90;100.00;100560.94;7677498;23;20027;-95
2023/07/17 00:09:54;;;;;;;5.82;3.10;;;;;;;18.90;100.00;100556.50;7652699;23;20044;-95
2023/07/17 00:12:57;;;;;;;3.38;3.05;;;;;;;18.89;100.00;100557.50;7703950;23;20184;-96
2023/07/17 00:15:59;;;;;;;4.20;2.90;;;;;;;18.86;100.00;100552.59;7703777;23;20024;-96
2023/07/17 00:19:04;;;;;;;4.38;2.60;;;;;;;18.79;100.00;100553.47;7677338;23;20024;-95
2023/07/17 00:22:07;;;;;;;5.82;3.42;;;;;;;18.75;100.00;100566.06;7703953;23;20017;-95
2023/07/17 00:25:09;;;;;;;5.65;2.78;;;;;;;18.70;100.00;100574.44;7703943;23;20174;-95
2023/07/17 00:28:11;;;;;;;5.50;3.13;;;;;;;18.65;100.00;100575.97;7702610;23;20016;-96
2023/07/17 00:31:13;;;;;;;5.90;3.00;;;;;;;18.67;100.00;100571.38;7652482;23;20025;-95
2023/07/17 00:34:20;;;;;;;4.35;3.10;;;;;;;18.67;100.00;100566.13;7676135;23;20032;-95
2023/07/17 00:37:22;;;;;;;4.38;3.20;;;;;;;18.63;100.00;100570.91;7652256;23;20028;-96
2023/07/17 00:40:25;;;;;;;7.07;3.03;;;;;;;18.58;100.00;100573.22;7650999;23;20025;-94
2023/07/17 00:43:27;;;;;;;5.22;2.85;;;;;;;18.65;100.00;100579.41;7703897;23;20087;-95
2023/07/17 00:46:34;;;;;;;4.32;2.92;;;;;;;18.69;100.00;100575.47;7677100;23;20108;-95
2023/07/17 00:49:38;;;;;;;5.32;2.85;;;;;;;18.68;100.00;100579.09;7653090;23;20055;-95
2023/07/17 00:52:41;;;;;;;5.72;3.50;;;;;;;18.72;100.00;100584.78;7677118;23;20143;-95
2023/07/17 00:55:43;;;;;;;8.18;3.22;;;;;;;18.82;100.00;100590.66;7677002;23;20024;-95
2023/07/17 00:58:46;;;;;;;5.97;3.35;;;;;;;18.89;100.00;100580.28;7677203;23;20087;-95
2023/07/17 01:01:48;;;;;;;8.05;3.20;;;;;;;18.89;100.00;100575.03;7702881;23;20026;-96
2023/07/17 01:04:50;;;;;;;6.47;3.30;;;;;;;18.87;100.00;100569.97;7674995;23;20333;-96
2023/07/17 01:07:55;;;;;;;6.10;3.38;;;;;;;18.79;100.00;100563.97;7676107;23;20151;-95
2023/07/17 01:10:57;;;;;;;4.93;2.58;;;;;;;18.75;100.00;100567.88;7701973;23;20542;-95
2023/07/17 01:14:03;;;;;;;5.28;2.95;;;;;;;18.71;100.00;100581.34;7677184;23;20027;-95
2023/07/17 01:17:05;;;;;;;5.47;3.30;;;;;;;18.66;100.00;100569.75;7677189;23;20028;-95
2023/07/17 01:20:10;;;;;;;5.00;2.90;;;;;;;18.62;100.00;100569.25;7652060;23;20017;-96
2023/07/17 01:23:12;;;;;;;5.45;3.33;;;;;;;18.52;100.00;100564.25;7677193;23;20016;-95
2023/07/17 01:26:17;;;;;;;6.85;3.35;;;;;;;18.46;100.00;100567.56;7702379;23;20397;-96
2023/07/17 01:29:19;;;;;;;4.60;3.30;;;;;;;18.39;100.00;100557.94;7703216;23;20020;-95
2023/07/17 01:32:21;;;;;;;4.75;2.97;;;;;;;18.36;100.00;100553.00;7675603;23;20107;-94
2023/07/17 01:35:23;;;;;;;6.63;3.13;;;;;;;18.37;100.00;100554.66;7650797;23;20430;-95
2023/07/17 01:38:25;;;;;;;5.45;2.90;;;;;;;18.33;100.00;100559.41;7701242;23;20494;-96
2023/07/17 01:41:27;;;;;;;8.25;3.45;;;;;;;18.24;100.00;100563.88;7651678;23;20147;-95
2023/07/17 01:44:31;;;;;;;7.15;3.35;;;;;;;18.16;100.00;100563.94;7676170;23;20028;-95
2023/07/17 01:47:34;;;;;;;7.47;3.47;;;;;;;18.03;100.00;100563.63;7675044;23;20546;-95
2023/07/17 01:50:36;;;;;;;6.82;3.20;;;;;;;17.94;100.00;100565.47;7676792;23;20356;-95
2023/07/17 01:53:38;;;;;;;7.78;3.45;;;;;;;17.91;100.00;100567.59;7651488;23;20090;-95
2023/07/17 01:56:40;;;;;;;4.63;3.05;;;;;;;17.81;100.00;100576.47;7676362;23;20054;-96
2023/07/17 01:59:42;;;;;;;4.63;3.45;;;;;;;17.77;100.00;100571.72;7650455;23;20072;-96
2023/07/17 02:02:44;;;;;;;7.25;3.20;;;;;;;17.72;100.00;100569.59;7675536;23;20025;-96
2023/07/17 02:05:46;;;;;;;5.63;3.42;;;;;;;17.67;100.00;100563.22;7676572;23;20027;-96
2023/07/17 02:08:48;;;;;;;6.43;3.30;;;;;;;17.63;100.00;100558.28;7701666;23;20394;-95
2023/07/17 02:11:53;;;;;;;7.28;3.72;;;;;;;17.69;100.00;100561.22;7673816;23;20393;-94
2023/07/17 02:14:55;;;;;;;7.35;3.28;;;;;;;17.70;100.00;100557.66;7675958;23;20089;-96
2023/07/17 02:17:57;;;;;;;9.40;3.53;;;;;;;17.73;100.00;100565.16;7675633;23;20464;-96
2023/07/17 02:21:00;;;;;;;5.65;3.17;;;;;;;17.71;100.00;100554.03;7650944;23;20024;-96
2023/07/17 02:24:02;;;;;;;4.90;3.10;;;;;;;17.68;100.00;100559.59;7703287;23;20028;-95
2023/07/17 02:27:04;;;;;;;6.68;3.58;;;;;;;17.66;100.00;100565.00;7674961;23;20155;-95
2023/07/17 02:30:07;;;;;;;6.20;3.33;;;;;;;17.61;100.00;100572.53;7651202;23;20111;-96
2023/07/17 02:33:09;;;;;;;4.45;3.10;;;;;;;17.56;100.00;100580.88;7650824;23;20024;-96
2023/07/17 02:36:11;;;;;;;6.22;3.20;;;;;;;17.56;100.00;100587.91;7672278;23;20034;-96
2023/07/17 02:39:14;;;;;;;7.30;3.50;;;;;;;17.57;100.00;100584.34;7699687;23;20032;-96
2023/07/17 02:42:16;;;;;;;6.40;3.75;;;;;;;17.63;100.00;100578.44;7676107;23;20020;-95
2023/07/17 02:45:18;;;;;;;4.88;3.33;;;;;;;17.66;100.00;100575.47;7676906;23;20031;-94
2023/07/17 02:48:20;;;;;;;4.68;3.13;;;;;;;17.69;100.00;100588.25;7703368;23;20026;-95
2023/07/17 02:51:22;;;;;;;6.13;3.22;;;;;;;17.65;100.00;100582.50;7675680;23;20040;-94
2023/07/17 02:54:24;;;;;;;5.28;3.15;;;;;;;17.62;100.00;100592.50;7677350;23;20526;-95
2023/07/17 02:57:26;;;;;;;5.47;3.25;;;;;;;17.56;100.00;100583.50;7703886;23;20626;-95
2023/07/17 03:00:28;;;;;;;5.07;3.33;;;;;;;17.51;100.00;100580.56;7703399;23;20020;-95
2023/07/17 03:03:30;;;;;;;6.30;3.38;;;;;;;17.50;100.00;100588.59;7652070;23;20024;-95
2023/07/17 03:06:32;;;;;;;7.45;3.63;;;;;;;17.54;100.00;100609.03;7704506;23;20343;-96
2023/07/17 03:09:34;;;;;;;5.32;3.30;;;;;;;17.61;100.00;100622.28;7677932;23;20040;-96
2023/07/17 03:12:36;;;;;;;4.75;3.45;;;;;;;17.62;100.00;100618.69;7653230;23;20178;-96
2023/07/17 03:15:39;;;;;;;5.40;3.42;;;;;;;17.64;100.00;100619.34;7678041;23;20025;-96
2023/07/17 03:18:41;;;;;;;5.45;3.42;;;;;;;17.62;100.00;100621.31;7704828;23;20024;-95
2023/07/17 03:21:43;;;;;;;7.43;3.00;;;;;;;17.63;100.00;100623.75;7677869;23;20020;-96
2023/07/17 03:24:45;;;;;;;5.85;3.10;;;;;;;17.63;100.00;100636.84;7677890;23;20024;-95
2023/07/17 03:27:47;;;;;;;6.03;3.50;;;;;;;17.68;100.00;100636.34;7702701;23;20017;-95
2023/07/17 03:30:51;;;;;;;4.32;3.45;;;;;;;17.78;100.00;100649.25;7677303;23;20028;-95
2023/07/17 03:33:54;;;;;;;5.90;3.28;;;;;;;17.88;100.00;100651.75;7653527;23;20528;-95
2023/07/17 03:36:57;;;;;;;6.20;3.28;;;;;;;18.16;100.00;100642.53;7679121;23;20028;-94
2023/07/17 03:39:59;;;;;;;6.03;3.17;;;;;;;18.38;100.00;100640.97;7652658;23;20024;-96
2023/07/17 03:43:01;;;;;;;5.22;3.33;;;;;;;18.34;100.00;100628.41;7653346;23;20031;-96
2023/07/17 03:46:04;;;;;;;5.97;3.30;;;;;;;18.32;100.00;100622.50;7677721;23;20020;-95
2023/07/17 03:49:08;;;;;;;5.93;2.95;;;;;;;18.31;100.00;100624.31;7677443;23;20090;-95
2023/07/17 03:52:10;;;;;;;4.10;2.92;;;;;;;18.34;100.00;100623.97;7677366;23;20021;-96
2023/07/17 03:55:12;;;;;;;8.45;3.28;;;;;;;18.39;100.00;100629.50;7653219;23;20051;-96
2023/07/17 03:58:16;;;;;;;3.97;2.95;;;;;;;18.41;100.00;100635.41;7677479;23;20031;-96
2023/07/17 04:01:19;;;;;;;7.95;3.13;;;;;;;18.43;100.00;100637.84;7677297;23;20024;-96
2023/07/17 04:04:24;;;;;;;6.00;3.33;;;;;;;18.44;100.00;100635.06;7675046;23;20016;-94
2023/07/17 04:07:27;;;;;;;4.75;3.20;;;;;;;18.49;100.00;100639.81;7704461;23;20024;-96
2023/07/17 04:10:30;;;;;;;5.13;2.90;;;;;;;18.54;100.00;100637.47;7704237;23;20023;-96
2023/07/17 04:13:32;;;;;;;6.30;3.28;;;;;;;18.60;100.00;100657.75;7676840;23;20149;-95
2023/07/17 04:16:36;;;;;;;6.30;3.13;;;;;;;18.64;100.00;100661.69;7652025;23;20029;-95
2023/07/17 04:19:39;;;;;;;6.85;3.35;;;;;;;18.64;100.00;100655.63;7652272;23;20044;-96
2023/07/17 04:22:42;;;;;;;6.60;3.20;;;;;;;18.58;100.00;100657.09;7677067;23;20027;-96
2023/07/17 04:25:44;;;;;;;4.03;2.75;;;;;;;18.63;100.00;100662.69;7676681;23;20029;-96
2023/07/17 04:28:46;;;;;;;5.60;3.42;;;;;;;18.61;100.00;100661.22;7677348;23;20465;-96
2023/07/17 04:31:49;;;;;;;7.38;4.22;;;;;;;18.31;100.00;100645.28;7652341;23;20024;-93
2023/07/17 04:34:51;;;;;;;9.27;4.45;;;;;;;17.79;100.00;100658.78;7677734;23;20024;-93
2023/07/17 04:37:54;;;;;;;5.93;4.13;;;;;;;17.54;100.00;100674.47;7652401;23;20025;-93
2023/07/17 04:40:56;;;;;;;6.78;3.78;;;;;;;17.46;100.00;100666.59;7655010;23;20048;-93
2023/07/17 04:43:58;;;;;;;5.22;3.30;;;;;;;17.33;100.00;100671.50;7678741;23;20021;-93
2023/07/17 04:47:00;;;;;;;6.63;3.65;;;;;;;17.34;100.00;100673.13;7679332;23;20470;-92
2023/07/17 04:50:03;;;;;;;6.93;3.85;;;;;;;17.44;100.00;100676.44;7706132;23;20030;-92
2023/07/17 04:53:08;;;;;;;5.43;4.15;;;;;;;17.55;100.00;100675.28;7678846;23;20052;-92
2023/07/17 04:56:09;;;;;;;5.93;3.83;;;;;;;17.65;100.00;100671.53;7678907;23;20021;-93
2023/07/17 04:59:12;;;;;;;7.18;3.28;;;;;;;17.84;100.00;100665.19;7678838;23;20024;-92
2023/07/17 05:02:15;;;;;;;6.68;3.45;;;;;;;17.98;100.00;100665.47;7704237;23;20025;-94
2023/07/17 05:05:17;;;;;;;6.93;3.80;;;;;;;18.17;100.00;100672.97;7678373;23;20032;-93
2023/07/17 05:08:19;;;;;;;7.75;3.70;;;;;;;18.55;100.00;100675.81;7706050;23;20075;-92
2023/07/17 05:11:21;;;;;;;6.82;3.28;;;;;;;18.82;100.00;100671.97;7678518;23;20031;-93
2023/07/17 05:14:23;;;;;;;4.97;2.95;;;;;;;19.10;100.00;100663.59;7654258;23;20025;-93
2023/07/17 05:17:26;;;;;;;5.70;3.28;;;;;;;19.38;100.00;100674.44;7654893;23;20024;-93
2023/07/17 05:20:28;;;;;;;4.10;3.00;;;;;;;19.59;100.00;100676.38;7705609;23;20016;-93
2023/07/17 05:23:30;;;;;;;4.72;3.08;;;;;;;19.67;100.00;100668.47;7679116;23;20287;-93
2023/07/17 05:26:32;;;;;;;6.72;3.38;;;;;;;19.10;100.00;100655.72;7678433;23;20127;-93
2023/07/17 05:29:35;;;;;;;4.95;3.00;;;;;;;18.92;100.00;100663.88;7678747;23;20054;-93
2023/07/17 05:32:36;;;;;;;5.88;3.00;;;;;;;18.79;100.00;100658.38;7675594;23;20024;-93
2023/07/17 05:35:39;;;;;;;4.70;3.03;;;;;;;18.75;100.00;100664.91;7705236;23;20071;-94
2023/07/17 05:38:41;;;;;;;4.80;2.80;;;;;;;18.88;100.00;100673.06;7654115;23;20553;-93
2023/07/17 05:41:43;;;;;;;4.25;2.60;;;;;;;18.99;100.00;100677.13;7679142;23;20288;-92
2023/07/17 05:44:45;;;;;;;4.28;2.95;;;;;;;19.01;100.00;100681.22;7679853;23;20040;-93
2023/07/17 05:47:47;;;;;;;4.93;2.53;;;;;;;18.99;100.00;100695.50;7679600;23;20021;-92
2023/07/17 05:50:50;;;;;;;3.28;2.42;;;;;;;18.96;100.00;100693.22;7704606;23;20017;-93
2023/07/17 05:53:52;;;;;;;4.07;2.80;;;;;;;19.04;100.00;100701.84;7678725;23;20471;-93
2023/07/17 05:56:54;;;;;;;8.77;2.80;;;;;;;19.06;100.00;100709.56;7678579;23;20024;-93
2023/07/17 05:59:56;;;;;;;3.97;2.63;;;;;;;19.13;100.00;100713.94;7678046;23;20035;-93
2023/07/17 06:02:58;;;;;;;4.80;3.13;;;;;;;19.20;100.00;100710.63;7704951;23;20525;-93
2023/07/17 06:06:00;;;;;;;4.35;2.67;;;;;;;19.24;100.00;100714.53;7678907;23;20020;-93
2023/07/17 06:09:02;;;;;;;4.78;3.33;;;;;;;19.32;100.00;100719.72;7705341;23;20107;-93
2023/07/17 06:12:05;;;;;;;3.92;3.08;;;;;;;19.36;100.00;100721.84;7704986;23;20029;-94
2023/07/17 06:15:07;;;;;;;4.30;2.97;;;;;;;19.34;100.00;100710.69;7678721;23;20024;-93
2023/07/17 06:18:09;;;;;;;4.88;2.92;;;;;;;19.40;100.00;100714.41;7704853;23;20028;-93
2023/07/17 06:21:11;;;;;;;4.15;3.17;;;;;;;19.50;100.00;100719.44;7678495;23;20016;-94
2023/07/17 06:24:14;;;;;;;6.75;3.08;;;;;;;19.66;100.00;100718.53;7704786;23;20024;-94
2023/07/17 06:27:16;;;;;;;4.70;2.90;;;;;;;19.58;100.00;100719.41;7704945;23;20586;-94
2023/07/17 06:30:18;;;;;;;4.75;2.90;;;;;;;19.43;100.00;100721.13;7678745;23;20017;-93
2023/07/17 06:33:21;;;;;;;8.05;3.53;;;;;;;19.03;100.00;100715.97;7705450;23;20020;-94
2023/07/17 06:36:23;;;;;;;6.60;3.92;;;;;;;18.82;100.00;100715.72;7678415;23;20186;-94
2023/07/17 06:39:26;;;;;;;5.00;3.10;;;;;;;18.62;100.00;100716.09;7678620;23;20024;-94
2023/07/17 06:42:30;;;;;;;6.90;3.20;;;;;;;18.49;100.00;100714.00;7678632;23;20020;-94
2023/07/17 06:45:34;;;;;;;6.28;2.60;;;;;;;18.31;100.00;100716.03;7678665;23;20160;-94
2023/07/17 06:48:36;;;;;;;4.90;3.13;;;;;;;18.24;100.00;100721.13;7704859;23;20052;-94
2023/07/17 06:51:38;;;;;;;7.47;3.13;;;;;;;18.86;100.00;100724.91;7703206;23;20095;-94
2023/07/17 06:54:39;;;;;;;3.97;2.60;;;;;;;19.00;100.00;100718.91;7678283;23;20121;-94
2023/07/17 06:58:01;;;;;;;4.05;2.35;;;;;;;18.95;100.00;100721.25;7682036;23;20017;-94
2023/07/17 07:01:03;;;;;;;4.72;2.92;;;;;;;19.29;100.00;100728.78;7677643;23;20020;-93
2023/07/17 07:04:05;;;;;;;3.50;2.53;;;;;;;19.43;100.00;100714.09;7678046;23;20032;-95
2023/07/17 07:07:07;;;;;;;4.45;2.47;;;;;;;19.53;100.00;100716.50;7704783;23;20021;-94
2023/07/17 07:10:10;;;;;;;4.43;2.50;;;;;;;18.99;100.00;100719.91;7677521;23;20020;-94
2023/07/17 07:13:14;;;;;;;6.38;2.65;;;;;;;18.82;100.00;100724.41;7704304;23;20095;-94
2023/07/17 07:16:16;;;;;;;6.68;3.10;;;;;;;18.86;100.00;100719.66;7704473;23;20017;-94
2023/07/17 07:19:19;;;;;;;5.35;2.67;;;;;;;19.01;100.00;100738.94;7677611;23;20381;-94
2023/07/17 07:22:24;;;;;;;5.22;2.65;;;;;;;19.04;100.00;100733.34;7703998;23;20025;-94
2023/07/17 07:25:26;;;;;;;8.07;3.13;;;;;;;19.09;100.00;100725.75;7704642;23;20472;-95
2023/07/17 07:28:28;;;;;;;3.97;2.58;;;;;;;19.10;100.00;100737.88;7705246;23;20027;-93
2023/07/17 07:31:31;;;;;;;5.13;2.63;;;;;;;19.17;100.00;100740.66;7678018;23;20020;-95
2023/07/17 07:34:32;;;;;;;4.53;2.67;;;;;;;19.27;100.00;100743.06;7692374;23;20027;-93
2023/07/17 07:37:34;;;;;;;4.95;2.35;;;;;;;19.41;100.00;100741.50;7678143;23;20024;-95
2023/07/17 07:40:37;;;;;;;3.20;2.05;;;;;;;19.40;100.00;100732.00;7677966;23;20012;-95
2023/07/17 07:43:39;;;;;;;5.10;2.20;;;;;;;19.43;100.00;100742.97;7704839;23;20021;-94
2023/07/17 07:46:41;;;;;;;6.22;2.15;;;;;;;19.55;100.00;100740.75;7704658;23;20043;-95
2023/07/17 07:49:43;;;;;;;3.47;2.10;;;;;;;19.66;100.00;100744.78;7677796;23;20021;-93
2023/07/17 07:52:49;;;;;;;4.78;2.35;;;;;;;19.81;100.00;100755.38;7705344;23;20016;-94
2023/07/17 07:55:56;;;;;;;4.93;2.00;;;;;;;19.90;100.00;100765.66;7705352;23;20020;-91
2023/07/17 07:58:57;;;;;;;5.00;2.28;;;;;;;19.96;100.00;100758.88;7678724;23;20027;-93
2023/07/17 08:02:00;;;;;;;4.80;2.05;;;;;;;20.03;100.00;100757.16;7678234;23;20385;-94
2023/07/17 08:05:03;;;;;;;3.42;1.80;;;;;;;20.18;100.00;100760.66;7704133;23;20435;-94
2023/07/17 08:08:05;;;;;;;5.60;1.70;;;;;;;20.29;100.00;100755.94;7678049;23;20074;-94
2023/07/17 08:11:07;;;;;;;3.75;1.88;;;;;;;20.35;100.00;100761.31;7704088;23;20027;-93
2023/07/17 08:14:09;;;;;;;3.05;1.83;;;;;;;20.41;100.00;100763.22;7679011;23;20095;-93
2023/07/17 08:17:13;;;;;;;2.75;1.77;;;;;;;20.44;100.00;100760.22;7680174;23;20024;-94
2023/07/17 08:20:15;;;;;;;4.95;2.00;;;;;;;20.53;100.00;100750.44;7706307;23;20548;-95
2023/07/17 08:23:30;;;;;;;2.30;1.77;;;;;;;20.62;100.00;100764.34;7707384;23;20075;-96
2023/07/17 08:26:32;;;;;;;4.22;1.75;;;;;;;20.89;100.00;100764.69;7682264;23;20439;-96
2023/07/17 08:29:35;;;;;;;4.03;1.70;;;;;;;21.01;100.00;100771.94;7683935;23;20438;-96
2023/07/17 08:32:37;;;;;;;3.97;1.60;;;;;;;20.96;100.00;100763.78;7709562;23;20151;-96
2023/07/17 08:35:40;;;;;;;3.97;1.98;;;;;;;20.92;100.00;100772.22;7708327;23;20020;-96
2023/07/17 08:38:42;;;;;;;2.80;1.83;;;;;;;20.96;100.00;100769.03;7680439;23;20016;-96
2023/07/17 08:41:50;;;;;;;3.90;2.20;;;;;;;20.99;100.00;100762.59;7679903;23;20040;-96
2023/07/17 08:44:56;;;;;;;5.05;2.10;;;;;;;21.06;100.00;100769.56;7680794;23;20024;-95
2023/07/17 08:48:00;;;;;;;3.55;2.00;;;;;;;21.17;100.00;100756.97;7706888;23;20031;-95
2023/07/17 08:51:08;;;;;;;3.55;2.15;;;;;;;21.32;100.00;100760.38;7657934;23;20424;-95
2023/07/17 08:54:12;;;;;;;5.25;2.10;;;;;;;21.53;100.00;100764.88;7709368;23;20067;-96
2023/07/17 08:57:32;;;;;;;4.45;2.25;;;;;;;21.77;100.00;100765.50;7705990;23;20567;-95
2023/07/17 09:00:36;;;;;;;5.57;2.22;;;;;;;21.96;100.00;100767.47;7681645;23;20100;-96
2023/07/17 09:03:38;;;;;;;4.30;2.33;;;;;;;21.92;100.00;100764.41;7680780;23;20059;-96
2023/07/17 09:06:41;;;;;;;7.90;2.13;;;;;;;21.84;100.00;100763.75;7679500;23;20389;-95
2023/07/17 09:09:43;;;;;;;4.50;2.10;;;;;;;21.76;100.00;100764.66;7678779;23;20023;-93
2023/07/17 09:12:55;;;;;;;4.07;2.00;;;;;;;21.79;100.00;100760.84;7679006;23;20024;-92
2023/07/17 09:16:21;;;;;;;3.92;1.85;;;;;;;21.69;100.00;100767.25;7680163;23;20067;-92
2023/07/17 09:19:27;;;;;;;3.08;1.85;;;;;;;21.57;100.00;100778.50;7679283;23;20609;-95
2023/07/17 09:22:29;;;;;;;3.70;1.90;;;;;;;21.54;100.00;100770.94;7706262;23;20059;-93
2023/07/17 09:25:31;;;;;;;3.88;2.00;;;;;;;21.48;100.00;100780.41;7679688;23;20088;-91
2023/07/17 09:28:37;;;;;;;3.95;2.28;;;;;;;21.47;100.00;100781.44;7704819;23;20173;-89
2023/07/17 09:31:39;;;;;;;3.50;2.38;;;;;;;21.50;100.00;100773.16;7679101;23;20034;-96
2023/07/17 09:34:41;;;;;;;4.85;2.20;;;;;;;21.57;100.00;100781.94;7704410;23;20398;-94
2023/07/17 09:37:44;;;;;;;3.47;1.92;;;;;;;21.69;100.00;100790.97;7705991;23;20044;-94
2023/07/17 09:40:47;;;;;;;2.25;1.83;;;;;;;21.92;100.00;100785.50;7705021;23;20094;-95
2023/07/17 09:43:53;;;;;;;5.38;2.65;;;;;;;22.25;100.00;100790.25;7705894;23;20032;-93
2023/07/17 09:46:55;;;;;;;3.90;2.25;;;;;;;22.75;100.00;100785.72;7678418;23;20036;-93
2023/07/17 09:49:59;;;;;;;4.53;2.22;;;;;;;22.94;100.00;100791.31;7705389;23;20020;-94
2023/07/17 09:53:03;;;;;;;3.38;2.42;;;;;;;22.59;100.00;100793.94;7678680;23;20418;-95
2023/07/17 09:56:11;;;;;;;3.08;2.00;;;;;;;22.38;100.00;100783.44;7679321;23;20024;-93
2023/07/17 09:59:17;;;;;;;3.63;2.60;;;;;;;22.73;100.00;100790.38;7705343;23;20087;-94
2023/07/17 10:02:26;;;;;;;2.25;2.05;;;;;;;23.04;100.00;100783.06;7705511;23;20013;-95
2023/07/17 10:05:33;;;;;;;4.72;2.38;;;;;;;23.02;100.00;100799.06;7706391;23;20032;-96
2023/07/17 10:08:35;;;;;;;3.35;2.22;;;;;;;22.77;100.00;100786.34;7679877;23;20379;-93
2023/07/17 10:11:37;;;;;;;3.80;2.42;;;;;;;22.64;100.00;100785.47;7678286;23;20028;-94
2023/07/17 10:14:39;;;;;;;6.60;2.63;;;;;;;22.64;100.00;100783.63;7705282;23;20024;-94
2023/07/17 10:17:41;;;;;;;4.65;2.60;;;;;;;22.86;100.00;100796.75;7704966;23;20024;-92
2023/07/17 10:20:55;;;;;;;9.48;2.40;;;;;;;23.38;100.00;100804.09;7704462;23;20547;-93
2023/07/17 10:24:02;;;;;;;4.68;2.50;;;;;;;23.91;100.00;100794.66;7677757;23;20028;-93
2023/07/17 10:27:04;;;;;;;3.42;1.80;;;;;;;24.41;100.00;100801.16;7704673;23;20087;-95
2023/07/17 10:30:32;;;;;;;4.00;2.03;;;;;;;24.49;94.95;100808.09;7704448;23;20674;-93
2023/07/17 10:33:38;;;;;;;3.45;2.47;;;;;;;24.68;91.98;100807.25;7678208;23;20028;-94
2023/07/17 10:36:43;;;;;;;3.95;2.20;;;;;;;24.58;87.16;100804.22;7678100;23;20518;-93
2023/07/17 10:39:45;;;;;;;3.55;2.40;;;;;;;24.35;87.23;100817.88;7678947;23;20761;-91
2023/07/17 10:42:47;;;;;;;5.63;2.60;;;;;;;23.85;89.60;100807.69;7679575;23;20027;-94
2023/07/17 10:45:52;;;;;;;10.55;3.00;;;;;;;23.59;96.30;100800.47;7706171;23;20029;-95
2023/07/17 10:49:05;;;;;;;3.33;2.15;;;;;;;23.99;95.63;100805.84;7653421;23;20024;-94
2023/07/17 10:52:07;;;;;;;4.13;2.47;;;;;;;23.97;99.65;100812.34;7705883;23;20019;-93
2023/07/17 10:55:10;;;;;;;6.00;2.85;;;;;;;23.98;99.17;100800.78;7703942;23;20465;-94
2023/07/17 10:58:13;;;;;;;3.45;2.50;;;;;;;24.00;98.58;100806.66;7704613;23;20031;-95
2023/07/17 11:01:21;;;;;;;6.13;2.80;;;;;;;24.01;100.00;100805.66;7703957;23;20016;-92
2023/07/17 11:04:22;;;;;;;4.95;2.40;;;;;;;23.82;98.79;100802.78;7677518;23;20222;-93
2023/07/17 11:07:25;;;;;;;4.80;2.40;;;;;;;23.59;98.70;100811.06;7677423;23;20020;-95
2023/07/17 11:10:27;;;;;;;6.00;2.42;;;;;;;23.40;98.52;100817.09;7653320;23;20024;-92
2023/07/17 11:13:31;;;;;;;5.93;2.33;;;;;;;23.52;100.00;100809.41;7677981;23;20047;-94
2023/07/17 11:16:33;;;;;;;6.35;2.67;;;;;;;23.89;100.00;100809.91;7704761;23;20110;-93
2023/07/17 11:19:36;;;;;;;4.18;2.80;;;;;;;24.04;98.93;100806.06;7701600;23;20031;-94
2023/07/17 11:22:40;;;;;;;4.93;2.90;;;;;;;24.20;100.00;100817.28;7704245;23;20028;-94
2023/07/17 11:25:43;;;;;;;4.60;2.50;;;;;;;24.07;95.10;100820.69;7678008;23;20016;-96
2023/07/17 11:28:49;;;;;;;4.35;2.78;;;;;;;23.99;92.55;100818.25;7678089;23;20021;-94
2023/07/17 11:32:00;;;;;;;3.92;2.47;;;;;;;24.40;93.36;100820.72;7704221;23;20445;-96
2023/07/17 11:35:04;;;;;;;5.32;2.80;;;;;;;24.86;90.03;100805.78;7703482;23;20417;-92
2023/07/17 11:38:07;;;;;;;4.43;2.80;;;;;;;24.98;91.02;100812.06;7677792;23;20049;-93
2023/07/17 11:41:09;;;;;;;5.03;2.78;;;;;;;24.78;89.25;100819.25;7704111;23;20394;-93
2023/07/17 11:44:11;;;;;;;8.32;3.50;;;;;;;24.30;92.97;100833.53;7704440;23;20020;-91
2023/07/17 11:47:13;;;;;;;8.60;3.35;;;;;;;23.90;91.20;100822.94;7704618;23;20024;-96
2023/07/17 11:50:27;;;;;;;4.90;3.03;;;;;;;23.67;96.66;100804.75;7680532;23;20020;-94
2023/07/17 11:53:29;;;;;;;7.95;3.00;;;;;;;23.27;97.21;100822.34;7706653;23;20020;-90
2023/07/17 11:56:40;;;;;;;5.28;3.83;;;;;;;22.98;100.00;100825.06;7707023;23;20021;-92
2023/07/17 11:59:46;;;;;;;6.35;3.08;;;;;;;23.04;100.00;100831.38;7706349;23;20346;-93
2023/07/17 12:02:47;;;;;;;3.97;3.05;;;;;;;23.27;99.95;100815.22;7679924;23;20056;-94
2023/07/17 12:05:50;;;;;;;6.35;3.20;;;;;;;23.86;96.16;100804.00;7706186;23;20386;-94
2023/07/17 12:08:52;;;;;;;5.72;3.40;;;;;;;24.03;91.74;100806.28;7706042;23;20351;-93
2023/07/17 12:11:55;;;;;;;4.25;3.15;;;;;;;24.00;89.03;100809.31;7706684;23;20013;-95
2023/07/17 12:14:57;;;;;;;7.03;3.05;;;;;;;23.62;85.89;100809.84;7706900;23;20439;-94
2023/07/17 12:17:59;;;;;;;4.90;3.28;;;;;;;23.35;87.13;100816.88;7679895;23;20048;-94
2023/07/17 12:21:01;;;;;;;4.65;3.13;;;;;;;23.11;90.56;100818.22;7706622;23;20656;-93
2023/07/17 12:24:03;;;;;;;6.20;2.78;;;;;;;22.93;89.03;100822.19;7706082;23;20020;-92
2023/07/17 12:27:06;;;;;;;6.18;3.40;;;;;;;23.20;89.38;100809.94;7678976;23;20163;-95
2023/07/17 12:30:09;;;;;;;6.20;2.83;;;;;;;23.41;92.54;100806.34;7679244;23;20385;-93
2023/07/17 12:33:11;;;;;;;3.60;2.65;;;;;;;23.98;85.59;100808.72;7705510;23;20027;-92
2023/07/17 12:36:14;;;;;;;7.50;3.08;;;;;;;24.03;85.96;100804.44;7678952;23;20028;-93
2023/07/17 12:39:16;;;;;;;5.43;2.50;;;;;;;23.98;79.55;100808.72;7705755;23;20025;-93
2023/07/17 12:42:18;;;;;;;6.25;2.90;;;;;;;24.08;80.63;100802.00;7678845;23;20382;-94
2023/07/17 12:45:21;;;;;;;4.88;3.13;;;;;;;24.26;76.44;100797.91;7679263;23;20017;-93
2023/07/17 12:48:23;;;;;;;3.40;2.30;;;;;;;24.16;80.22;100800.97;7705542;23;20016;-93
2023/07/17 12:51:25;;;;;;;6.57;2.50;;;;;;;24.48;78.06;100809.13;7705099;23;20020;-93
2023/07/17 12:54:27;;;;;;;4.93;2.70;;;;;;;24.52;75.43;100804.22;7678168;23;20163;-93
2023/07/17 12:57:29;;;;;;;3.72;1.95;;;;;;;24.20;74.40;100804.03;7705361;23;20025;-93
2023/07/17 13:00:34;;;;;;;3.03;1.70;;;;;;;24.05;76.45;100796.31;7676204;23;20504;-92
2023/07/17 13:03:37;;;;;;;4.22;1.90;;;;;;;24.37;74.97;100799.97;7692764;23;20019;-93
2023/07/17 13:06:46;;;;;;;3.95;2.63;;;;;;;24.75;78.01;100801.13;7702032;23;20025;-93
2023/07/17 13:09:48;;;;;;;6.78;2.60;;;;;;;25.05;73.49;100812.84;7678089;23;20025;-93
2023/07/17 13:12:50;;;;;;;3.03;2.20;;;;;;;24.61;67.88;100816.22;7679064;23;20017;-91
2023/07/17 13:15:53;;;;;;;3.85;2.03;;;;;;;24.13;73.32;100809.31;7678533;23;20029;-93
2023/07/17 13:18:55;;;;;;;4.70;2.20;;;;;;;24.09;75.13;100816.03;7705022;23;20086;-93
2023/07/17 13:21:57;;;;;;;2.80;1.63;;;;;;;24.19;70.14;100799.75;7705482;23;20067;-93
2023/07/17 13:24:59;;;;;;;3.08;1.50;;;;;;;24.14;69.22;100804.84;7706341;23;20025;-92
2023/07/17 13:28:01;;;;;;;2.85;1.92;;;;;;;24.28;74.24;100799.34;7705455;23;20020;-94
2023/07/17 13:31:03;;;;;;;5.65;2.53;;;;;;;24.73;81.36;100803.19;7704491;23;20020;-95
2023/07/17 13:34:11;;;;;;;3.55;2.13;;;;;;;24.91;69.89;100822.66;7677838;23;20021;-92
2023/07/17 13:37:14;;;;;;;3.10;2.00;;;;;;;24.93;71.63;100810.03;7678452;23;20023;-94
2023/07/17 13:40:22;;;;;;;6.88;1.60;;;;;;;24.75;68.17;100803.78;7678698;23;20021;-94
2023/07/17 13:43:24;;;;;;;3.13;1.45;;;;;;;24.58;70.39;100801.56;7678700;23;20025;-93
2023/07/17 13:46:26;;;;;;;3.30;2.33;;;;;;;24.57;72.25;100797.31;7704516;23;20028;-95
2023/07/17 13:49:33;;;;;;;3.75;1.85;;;;;;;25.45;71.06;100794.13;7693216;23;20084;-94
2023/07/17 13:52:37;;;;;;;3.75;1.80;;;;;;;26.31;64.27;100798.00;7704402;23;20087;-94
2023/07/17 13:55:40;;;;;;;3.45;2.03;;;;;;;26.77;64.88;100791.44;7705092;23;20526;-94
2023/07/17 13:58:42;;;;;;;3.08;1.92;;;;;;;26.62;62.07;100793.66;7704691;23;20102;-96
2023/07/17 14:01:45;;;;;;;2.38;1.88;;;;;;;26.46;64.17;100788.88;7677667;23;20016;-96
2023/07/17 14:04:47;;;;;;;5.22;1.77;;;;;;;25.79;62.52;100794.75;7704974;23;20498;-90